sensor_id;sensor_type;location;lat;lon;timestamp;temperature;humidity
4505;DHT22;2265;48.794;9.520;2023-02-20T00:01:16;9.50;98.00
4505;DHT22;2265;48.794;9.520;2023-02-20T00:03:44;9.50;98.00
4505;DHT22;2265;48.794;9.520;2023-02-20T00:06:13;9.40;98.00
4505;DHT22;2265;48.794;9.520;2023-02-20T00:08:40;9.50;98.00
4505;DHT22;2265;48.794;9.520;2023-02-20T00:11:10;9.50;98.00
4505;DHT22;2265;48.794;9.520;2023-02-20T00:13:37;9.50;98.00
4505;DHT22;2265;48.794;9.520;2023-02-20T00:16:05;9.40;98.00
4505;DHT22;2265;48.794;9.520;2023-02-20T00:18:32;9.50;98.00
4505;DHT22;2265;48.794;9.520;2023-02-20T00:20:59;9.50;98.00
4505;DHT22;2265;48.794;9.520;2023-02-20T00:23:31;9.40;98.00
4505;DHT22;2265;48.794;9.520;2023-02-20T00:25:58;9.40;98.00
4505;DHT22;2265;48.794;9.520;2023-02-20T00:28:26;9.40;98.00
4505;DHT22;2265;48.794;9.520;2023-02-20T00:30:54;9.40;98.00
4505;DHT22;2265;48.794;9.520;2023-02-20T00:33:21;9.40;98.00
4505;DHT22;2265;48.794;9.520;2023-02-20T00:35:48;9.40;98.00
4505;DHT22;2265;48.794;9.520;2023-02-20T00:38:15;9.40;98.00
4505;DHT22;2265;48.794;9.520;2023-02-20T00:40:45;9.40;98.00
4505;DHT22;2265;48.794;9.520;2023-02-20T00:43:12;9.40;98.00
4505;DHT22;2265;48.794;9.520;2023-02-20T00:45:39;9.30;98.00
4505;DHT22;2265;48.794;9.520;2023-02-20T00:48:06;9.30;98.00
4505;DHT22;2265;48.794;9.520;2023-02-20T00:50:34;9.30;98.00
4505;DHT22;2265;48.794;9.520;2023-02-20T00:53:02;9.30;98.00
4505;DHT22;2265;48.794;9.520;2023-02-20T00:55:29;9.30;98.00
4505;DHT22;2265;48.794;9.520;2023-02-20T00:57:57;9.30;98.00
4505;DHT22;2265;48.794;9.520;2023-02-20T01:00:26;9.30;98.00
4505;DHT22;2265;48.794;9.520;2023-02-20T01:02:54;9.30;98.00
4505;DHT22;2265;48.794;9.520;2023-02-20T01:05:22;9.30;98.00
4505;DHT22;2265;48.794;9.520;2023-02-20T01:07:49;9.30;98.00
4505;DHT22;2265;48.794;9.520;2023-02-20T01:10:17;9.30;98.00
4505;DHT22;2265;48.794;9.520;2023-02-20T01:12:44;9.30;98.00
4505;DHT22;2265;48.794;9.520;2023-02-20T01:15:15;9.30;98.00
4505;DHT22;2265;48.794;9.520;2023-02-20T01:17:42;9.20;98.00
4505;DHT22;2265;48.794;9.520;2023-02-20T01:20:10;9.20;98.00
4505;DHT22;2265;48.794;9.520;2023-02-20T01:22:37;9.20;98.00
4505;DHT22;2265;48.794;9.520;2023-02-20T01:25:06;9.20;98.00
4505;DHT22;2265;48.794;9.520;2023-02-20T01:27:34;9.10;98.00
4505;DHT22;2265;48.794;9.520;2023-02-20T01:30:02;9.10;98.00
4505;DHT22;2265;48.794;9.520;2023-02-20T01:32:31;9.10;98.00
4505;DHT22;2265;48.794;9.520;2023-02-20T01:34:58;8.90;98.00
4505;DHT22;2265;48.794;9.520;2023-02-20T01:37:25;8.90;98.00
4505;DHT22;2265;48.794;9.520;2023-02-20T01:39:52;8.80;98.00
4505;DHT22;2265;48.794;9.520;2023-02-20T01:42:22;8.80;98.00
4505;DHT22;2265;48.794;9.520;2023-02-20T01:44:49;8.80;98.00
4505;DHT22;2265;48.794;9.520;2023-02-20T01:47:20;8.80;98.00
4505;DHT22;2265;48.794;9.520;2023-02-20T01:49:51;8.80;98.00
4505;DHT22;2265;48.794;9.520;2023-02-20T01:52:24;8.70;98.00
4505;DHT22;2265;48.794;9.520;2023-02-20T01:54:55;8.70;98.00
4505;DHT22;2265;48.794;9.520;2023-02-20T01:57:27;8.70;98.00
4505;DHT22;2265;48.794;9.520;2023-02-20T01:59:59;8.80;98.00
4505;DHT22;2265;48.794;9.520;2023-02-20T02:02:31;8.70;98.00
4505;DHT22;2265;48.794;9.520;2023-02-20T02:05:01;8.70;98.00
4505;DHT22;2265;48.794;9.520;2023-02-20T02:07:28;8.70;98.00
4505;DHT22;2265;48.794;9.520;2023-02-20T02:10:02;8.60;98.00
4505;DHT22;2265;48.794;9.520;2023-02-20T02:12:30;8.60;98.00
4505;DHT22;2265;48.794;9.520;2023-02-20T02:14:57;8.60;98.00
4505;DHT22;2265;48.794;9.520;2023-02-20T02:17:40;8.50;98.00
4505;DHT22;2265;48.794;9.520;2023-02-20T02:23:34;8.50;98.00
4505;DHT22;2265;48.794;9.520;2023-02-20T02:26:24;8.50;98.00
4505;DHT22;2265;48.794;9.520;2023-02-20T02:29:41;8.40;98.00
4505;DHT22;2265;48.794;9.520;2023-02-20T02:32:35;8.50;98.00
4505;DHT22;2265;48.794;9.520;2023-02-20T02:38:16;8.60;98.00
4505;DHT22;2265;48.794;9.520;2023-02-20T02:41:05;8.70;98.00
4505;DHT22;2265;48.794;9.520;2023-02-20T02:43:44;8.70;98.00
4505;DHT22;2265;48.794;9.520;2023-02-20T02:46:18;8.80;98.00
4505;DHT22;2265;48.794;9.520;2023-02-20T02:48:55;8.80;98.00
4505;DHT22;2265;48.794;9.520;2023-02-20T02:51:26;8.90;98.00
4505;DHT22;2265;48.794;9.520;2023-02-20T02:54:06;8.80;98.00
4505;DHT22;2265;48.794;9.520;2023-02-20T02:56:35;8.60;98.00
4505;DHT22;2265;48.794;9.520;2023-02-20T02:59:04;8.50;98.00
4505;DHT22;2265;48.794;9.520;2023-02-20T03:01:34;8.30;98.00
4505;DHT22;2265;48.794;9.520;2023-02-20T03:04:04;8.30;98.00
4505;DHT22;2265;48.794;9.520;2023-02-20T03:06:35;8.30;98.00
4505;DHT22;2265;48.794;9.520;2023-02-20T03:09:10;8.40;98.00
4505;DHT22;2265;48.794;9.520;2023-02-20T03:11:39;8.40;98.00
4505;DHT22;2265;48.794;9.520;2023-02-20T03:14:09;8.30;98.00
4505;DHT22;2265;48.794;9.520;2023-02-20T03:16:58;8.40;98.00
4505;DHT22;2265;48.794;9.520;2023-02-20T03:19:35;8.50;98.00
4505;DHT22;2265;48.794;9.520;2023-02-20T03:22:06;8.50;98.00
4505;DHT22;2265;48.794;9.520;2023-02-20T03:24:38;8.50;98.00
4505;DHT22;2265;48.794;9.520;2023-02-20T03:27:22;8.50;98.00
4505;DHT22;2265;48.794;9.520;2023-02-20T03:29:51;8.60;98.00
4505;DHT22;2265;48.794;9.520;2023-02-20T03:32:19;8.70;98.00
4505;DHT22;2265;48.794;9.520;2023-02-20T03:35:08;8.70;98.00
4505;DHT22;2265;48.794;9.520;2023-02-20T03:37:53;8.70;98.00
4505;DHT22;2265;48.794;9.520;2023-02-20T03:40:41;8.60;98.00
4505;DHT22;2265;48.794;9.520;2023-02-20T03:43:27;8.60;98.00
4505;DHT22;2265;48.794;9.520;2023-02-20T03:46:00;8.60;98.00
4505;DHT22;2265;48.794;9.520;2023-02-20T03:48:32;8.60;98.00
4505;DHT22;2265;48.794;9.520;2023-02-20T03:51:01;8.70;98.00
4505;DHT22;2265;48.794;9.520;2023-02-20T03:53:29;8.60;98.00
4505;DHT22;2265;48.794;9.520;2023-02-20T03:56:01;8.60;98.00
4505;DHT22;2265;48.794;9.520;2023-02-20T03:58:32;8.60;98.00
4505;DHT22;2265;48.794;9.520;2023-02-20T04:01:02;8.60;98.00
4505;DHT22;2265;48.794;9.520;2023-02-20T04:03:35;8.70;98.00
4505;DHT22;2265;48.794;9.520;2023-02-20T04:06:06;8.70;98.00
4505;DHT22;2265;48.794;9.520;2023-02-20T04:08:37;8.70;98.00
4505;DHT22;2265;48.794;9.520;2023-02-20T04:11:16;8.70;98.00
4505;DHT22;2265;48.794;9.520;2023-02-20T04:13:46;8.70;98.00
4505;DHT22;2265;48.794;9.520;2023-02-20T04:16:18;8.70;98.00
4505;DHT22;2265;48.794;9.520;2023-02-20T04:18:48;8.70;98.00
4505;DHT22;2265;48.794;9.520;2023-02-20T04:21:19;8.70;98.00
4505;DHT22;2265;48.794;9.520;2023-02-20T04:23:51;8.60;98.00
4505;DHT22;2265;48.794;9.520;2023-02-20T04:26:24;8.60;98.00
4505;DHT22;2265;48.794;9.520;2023-02-20T04:28:52;8.60;98.00
4505;DHT22;2265;48.794;9.520;2023-02-20T04:31:21;8.60;98.00
4505;DHT22;2265;48.794;9.520;2023-02-20T04:33:49;8.60;98.00
4505;DHT22;2265;48.794;9.520;2023-02-20T04:36:16;8.60;98.00
4505;DHT22;2265;48.794;9.520;2023-02-20T04:38:46;8.60;98.00
4505;DHT22;2265;48.794;9.520;2023-02-20T04:41:13;8.60;98.00
4505;DHT22;2265;48.794;9.520;2023-02-20T04:43:42;8.60;98.00
4505;DHT22;2265;48.794;9.520;2023-02-20T04:46:09;8.70;98.00
4505;DHT22;2265;48.794;9.520;2023-02-20T04:48:36;8.60;98.00
4505;DHT22;2265;48.794;9.520;2023-02-20T04:51:04;8.50;98.00
4505;DHT22;2265;48.794;9.520;2023-02-20T04:53:31;8.50;98.00
4505;DHT22;2265;48.794;9.520;2023-02-20T04:55:58;8.40;98.00
4505;DHT22;2265;48.794;9.520;2023-02-20T04:58:25;8.40;98.00
4505;DHT22;2265;48.794;9.520;2023-02-20T05:00:54;8.30;98.00
4505;DHT22;2265;48.794;9.520;2023-02-20T05:03:21;8.30;98.00
4505;DHT22;2265;48.794;9.520;2023-02-20T05:05:48;8.40;98.00
4505;DHT22;2265;48.794;9.520;2023-02-20T05:08:16;8.40;98.00
4505;DHT22;2265;48.794;9.520;2023-02-20T05:10:43;8.40;98.00
4505;DHT22;2265;48.794;9.520;2023-02-20T05:13:10;8.30;98.00
4505;DHT22;2265;48.794;9.520;2023-02-20T05:15:37;8.30;98.00
4505;DHT22;2265;48.794;9.520;2023-02-20T05:18:05;8.30;98.00
4505;DHT22;2265;48.794;9.520;2023-02-20T05:20:32;8.30;98.00
4505;DHT22;2265;48.794;9.520;2023-02-20T05:23:17;8.30;98.00
4505;DHT22;2265;48.794;9.520;2023-02-20T05:25:44;8.40;98.00
4505;DHT22;2265;48.794;9.520;2023-02-20T05:28:12;8.40;98.00
4505;DHT22;2265;48.794;9.520;2023-02-20T05:30:39;8.40;98.00
4505;DHT22;2265;48.794;9.520;2023-02-20T05:33:08;8.30;98.00
4505;DHT22;2265;48.794;9.520;2023-02-20T05:35:35;8.30;98.00
4505;DHT22;2265;48.794;9.520;2023-02-20T05:38:04;8.30;98.00
4505;DHT22;2265;48.794;9.520;2023-02-20T05:40:31;8.20;98.00
4505;DHT22;2265;48.794;9.520;2023-02-20T05:43:00;8.20;98.00
4505;DHT22;2265;48.794;9.520;2023-02-20T05:45:27;8.20;98.00
4505;DHT22;2265;48.794;9.520;2023-02-20T05:47:54;8.20;98.00
4505;DHT22;2265;48.794;9.520;2023-02-20T05:50:22;8.20;98.00
4505;DHT22;2265;48.794;9.520;2023-02-20T05:52:50;8.10;98.00
4505;DHT22;2265;48.794;9.520;2023-02-20T05:55:17;8.10;98.00
4505;DHT22;2265;48.794;9.520;2023-02-20T05:57:44;8.10;98.00
4505;DHT22;2265;48.794;9.520;2023-02-20T06:00:12;8.10;98.00
4505;DHT22;2265;48.794;9.520;2023-02-20T06:02:40;8.00;98.00
4505;DHT22;2265;48.794;9.520;2023-02-20T06:05:07;8.00;98.00
4505;DHT22;2265;48.794;9.520;2023-02-20T06:07:36;8.00;98.00
4505;DHT22;2265;48.794;9.520;2023-02-20T06:10:03;8.10;98.00
4505;DHT22;2265;48.794;9.520;2023-02-20T06:12:30;8.00;98.00
4505;DHT22;2265;48.794;9.520;2023-02-20T06:14:57;8.10;98.00
4505;DHT22;2265;48.794;9.520;2023-02-20T06:17:25;8.00;98.00
4505;DHT22;2265;48.794;9.520;2023-02-20T06:19:54;8.00;98.00
4505;DHT22;2265;48.794;9.520;2023-02-20T06:22:21;8.00;98.00
4505;DHT22;2265;48.794;9.520;2023-02-20T06:24:49;8.00;98.00
4505;DHT22;2265;48.794;9.520;2023-02-20T06:27:17;8.00;98.00
4505;DHT22;2265;48.794;9.520;2023-02-20T06:29:46;8.00;98.00
4505;DHT22;2265;48.794;9.520;2023-02-20T06:32:14;8.00;98.00
4505;DHT22;2265;48.794;9.520;2023-02-20T06:34:44;8.00;98.00
4505;DHT22;2265;48.794;9.520;2023-02-20T06:37:12;8.00;98.00
4505;DHT22;2265;48.794;9.520;2023-02-20T06:39:42;7.90;98.00
4505;DHT22;2265;48.794;9.520;2023-02-20T06:42:14;7.90;98.00
4505;DHT22;2265;48.794;9.520;2023-02-20T06:44:41;8.00;98.00
4505;DHT22;2265;48.794;9.520;2023-02-20T06:47:08;8.00;98.00
4505;DHT22;2265;48.794;9.520;2023-02-20T06:49:35;8.00;98.00
4505;DHT22;2265;48.794;9.520;2023-02-20T06:52:04;8.00;98.00
4505;DHT22;2265;48.794;9.520;2023-02-20T06:54:31;8.10;98.00
4505;DHT22;2265;48.794;9.520;2023-02-20T06:56:59;8.10;98.00
4505;DHT22;2265;48.794;9.520;2023-02-20T06:59:28;8.10;98.00
4505;DHT22;2265;48.794;9.520;2023-02-20T07:01:55;8.10;98.00
4505;DHT22;2265;48.794;9.520;2023-02-20T07:04:24;8.10;98.00
4505;DHT22;2265;48.794;9.520;2023-02-20T07:06:51;8.10;98.00
4505;DHT22;2265;48.794;9.520;2023-02-20T07:09:18;8.10;98.00
4505;DHT22;2265;48.794;9.520;2023-02-20T07:11:46;8.00;98.00
4505;DHT22;2265;48.794;9.520;2023-02-20T07:14:15;8.00;98.00
4505;DHT22;2265;48.794;9.520;2023-02-20T07:16:46;7.90;98.00
4505;DHT22;2265;48.794;9.520;2023-02-20T07:19:13;7.90;98.00
4505;DHT22;2265;48.794;9.520;2023-02-20T07:21:40;7.80;98.00
4505;DHT22;2265;48.794;9.520;2023-02-20T07:24:09;8.00;98.00
4505;DHT22;2265;48.794;9.520;2023-02-20T07:26:36;8.10;98.00
4505;DHT22;2265;48.794;9.520;2023-02-20T07:29:05;8.10;98.00
4505;DHT22;2265;48.794;9.520;2023-02-20T07:31:32;8.20;98.00
4505;DHT22;2265;48.794;9.520;2023-02-20T07:34:01;8.20;98.00
4505;DHT22;2265;48.794;9.520;2023-02-20T07:36:28;8.20;98.00
4505;DHT22;2265;48.794;9.520;2023-02-20T07:38:57;8.30;98.00
4505;DHT22;2265;48.794;9.520;2023-02-20T07:41:25;8.30;98.00
4505;DHT22;2265;48.794;9.520;2023-02-20T07:43:54;8.30;98.00
4505;DHT22;2265;48.794;9.520;2023-02-20T07:46:21;8.30;98.00
4505;DHT22;2265;48.794;9.520;2023-02-20T07:48:49;8.50;98.00
4505;DHT22;2265;48.794;9.520;2023-02-20T07:51:19;8.50;98.00
4505;DHT22;2265;48.794;9.520;2023-02-20T07:53:47;8.50;98.00
4505;DHT22;2265;48.794;9.520;2023-02-20T07:56:15;8.60;98.00
4505;DHT22;2265;48.794;9.520;2023-02-20T07:58:42;8.70;98.00
4505;DHT22;2265;48.794;9.520;2023-02-20T08:01:09;8.70;98.00
4505;DHT22;2265;48.794;9.520;2023-02-20T08:03:37;8.60;98.00
4505;DHT22;2265;48.794;9.520;2023-02-20T08:06:05;8.70;98.00
4505;DHT22;2265;48.794;9.520;2023-02-20T08:08:34;8.70;98.00
4505;DHT22;2265;48.794;9.520;2023-02-20T08:11:01;8.80;98.00
4505;DHT22;2265;48.794;9.520;2023-02-20T08:13:28;8.80;98.00
4505;DHT22;2265;48.794;9.520;2023-02-20T08:15:56;8.80;98.00
4505;DHT22;2265;48.794;9.520;2023-02-20T08:18:24;8.90;98.00
4505;DHT22;2265;48.794;9.520;2023-02-20T08:20:51;9.00;98.00
4505;DHT22;2265;48.794;9.520;2023-02-20T08:23:20;9.00;98.00
4505;DHT22;2265;48.794;9.520;2023-02-20T08:25:48;9.10;98.00
4505;DHT22;2265;48.794;9.520;2023-02-20T08:28:17;9.20;98.00
4505;DHT22;2265;48.794;9.520;2023-02-20T08:30:45;9.30;98.00
4505;DHT22;2265;48.794;9.520;2023-02-20T08:33:12;9.50;98.00
4505;DHT22;2265;48.794;9.520;2023-02-20T08:35:42;9.60;98.00
4505;DHT22;2265;48.794;9.520;2023-02-20T08:38:25;9.70;98.00
4505;DHT22;2265;48.794;9.520;2023-02-20T08:40:54;9.70;98.00
4505;DHT22;2265;48.794;9.520;2023-02-20T08:43:22;9.80;98.00
4505;DHT22;2265;48.794;9.520;2023-02-20T08:45:49;9.80;98.00
4505;DHT22;2265;48.794;9.520;2023-02-20T08:48:17;9.90;98.00
4505;DHT22;2265;48.794;9.520;2023-02-20T08:50:44;9.90;98.00
4505;DHT22;2265;48.794;9.520;2023-02-20T08:53:12;9.90;98.00
4505;DHT22;2265;48.794;9.520;2023-02-20T08:55:39;10.00;98.00
4505;DHT22;2265;48.794;9.520;2023-02-20T08:58:09;10.10;98.00
4505;DHT22;2265;48.794;9.520;2023-02-20T09:00:36;10.10;98.00
4505;DHT22;2265;48.794;9.520;2023-02-20T09:03:04;10.30;98.00
4505;DHT22;2265;48.794;9.520;2023-02-20T09:05:33;10.30;98.00
4505;DHT22;2265;48.794;9.520;2023-02-20T09:08:02;10.40;98.00
4505;DHT22;2265;48.794;9.520;2023-02-20T09:10:32;10.40;98.00
4505;DHT22;2265;48.794;9.520;2023-02-20T09:12:59;10.50;98.00
4505;DHT22;2265;48.794;9.520;2023-02-20T09:15:29;10.60;98.00
4505;DHT22;2265;48.794;9.520;2023-02-20T09:18:00;10.70;98.00
4505;DHT22;2265;48.794;9.520;2023-02-20T09:20:28;10.90;98.00
4505;DHT22;2265;48.794;9.520;2023-02-20T09:22:57;10.90;98.00
4505;DHT22;2265;48.794;9.520;2023-02-20T09:25:25;10.90;98.00
4505;DHT22;2265;48.794;9.520;2023-02-20T09:27:52;10.90;98.00
4505;DHT22;2265;48.794;9.520;2023-02-20T09:30:19;11.00;98.00
4505;DHT22;2265;48.794;9.520;2023-02-20T09:32:49;11.10;98.00
4505;DHT22;2265;48.794;9.520;2023-02-20T09:35:18;11.20;98.00
4505;DHT22;2265;48.794;9.520;2023-02-20T09:37:45;11.30;98.00
4505;DHT22;2265;48.794;9.520;2023-02-20T09:40:13;11.40;98.00
4505;DHT22;2265;48.794;9.520;2023-02-20T09:42:48;11.50;98.00
4505;DHT22;2265;48.794;9.520;2023-02-20T09:45:19;11.70;98.00
4505;DHT22;2265;48.794;9.520;2023-02-20T09:48:07;11.80;98.00
4505;DHT22;2265;48.794;9.520;2023-02-20T09:50:42;11.90;98.00
4505;DHT22;2265;48.794;9.520;2023-02-20T09:53:18;12.00;98.00
4505;DHT22;2265;48.794;9.520;2023-02-20T09:55:48;12.10;98.00
4505;DHT22;2265;48.794;9.520;2023-02-20T09:58:22;12.40;98.00
4505;DHT22;2265;48.794;9.520;2023-02-20T10:00:52;12.60;98.00
4505;DHT22;2265;48.794;9.520;2023-02-20T10:03:29;12.50;98.00
4505;DHT22;2265;48.794;9.520;2023-02-20T10:06:00;12.70;98.00
4505;DHT22;2265;48.794;9.520;2023-02-20T10:08:29;12.70;98.00
4505;DHT22;2265;48.794;9.520;2023-02-20T10:11:02;12.90;98.00
4505;DHT22;2265;48.794;9.520;2023-02-20T10:13:46;13.10;98.00
4505;DHT22;2265;48.794;9.520;2023-02-20T10:16:24;13.00;98.00
4505;DHT22;2265;48.794;9.520;2023-02-20T10:19:03;12.90;98.00
4505;DHT22;2265;48.794;9.520;2023-02-20T10:21:46;12.90;98.00
4505;DHT22;2265;48.794;9.520;2023-02-20T10:24:27;12.80;98.00
4505;DHT22;2265;48.794;9.520;2023-02-20T10:27:03;12.90;98.00
4505;DHT22;2265;48.794;9.520;2023-02-20T10:29:34;13.00;98.00
4505;DHT22;2265;48.794;9.520;2023-02-20T10:32:04;13.00;98.00
4505;DHT22;2265;48.794;9.520;2023-02-20T10:34:40;12.90;98.00
4505;DHT22;2265;48.794;9.520;2023-02-20T10:37:13;13.00;98.00
4505;DHT22;2265;48.794;9.520;2023-02-20T10:39:47;13.00;98.00
4505;DHT22;2265;48.794;9.520;2023-02-20T10:42:19;13.10;98.00
4505;DHT22;2265;48.794;9.520;2023-02-20T10:44:52;13.30;98.00
4505;DHT22;2265;48.794;9.520;2023-02-20T10:47:27;13.40;98.00
4505;DHT22;2265;48.794;9.520;2023-02-20T10:50:01;13.60;98.00
4505;DHT22;2265;48.794;9.520;2023-02-20T10:52:33;13.80;98.00
4505;DHT22;2265;48.794;9.520;2023-02-20T10:55:05;13.70;98.00
4505;DHT22;2265;48.794;9.520;2023-02-20T10:57:37;13.70;98.00
4505;DHT22;2265;48.794;9.520;2023-02-20T11:00:10;13.80;98.00
4505;DHT22;2265;48.794;9.520;2023-02-20T11:02:40;13.90;98.00
4505;DHT22;2265;48.794;9.520;2023-02-20T11:05:12;13.90;98.00
4505;DHT22;2265;48.794;9.520;2023-02-20T11:07:42;14.00;98.00
4505;DHT22;2265;48.794;9.520;2023-02-20T11:10:09;13.90;98.00
4505;DHT22;2265;48.794;9.520;2023-02-20T11:12:42;14.00;98.00
4505;DHT22;2265;48.794;9.520;2023-02-20T11:15:12;14.20;98.00
4505;DHT22;2265;48.794;9.520;2023-02-20T11:17:41;14.30;98.00
4505;DHT22;2265;48.794;9.520;2023-02-20T11:20:38;14.50;98.00
4505;DHT22;2265;48.794;9.520;2023-02-20T11:23:06;14.70;98.00
4505;DHT22;2265;48.794;9.520;2023-02-20T11:25:35;14.80;98.00
4505;DHT22;2265;48.794;9.520;2023-02-20T11:28:09;14.90;98.00
4505;DHT22;2265;48.794;9.520;2023-02-20T11:30:40;15.20;98.00
4505;DHT22;2265;48.794;9.520;2023-02-20T11:33:12;15.60;97.90
4505;DHT22;2265;48.794;9.520;2023-02-20T11:35:44;16.00;96.50
4505;DHT22;2265;48.794;9.520;2023-02-20T11:38:29;16.10;95.50
4505;DHT22;2265;48.794;9.520;2023-02-20T11:44:05;16.70;96.00
4505;DHT22;2265;48.794;9.520;2023-02-20T11:46:33;17.20;94.40
4505;DHT22;2265;48.794;9.520;2023-02-20T11:49:02;17.50;92.90
4505;DHT22;2265;48.794;9.520;2023-02-20T11:51:34;17.50;91.90
4505;DHT22;2265;48.794;9.520;2023-02-20T11:54:12;17.60;92.20
4505;DHT22;2265;48.794;9.520;2023-02-20T11:56:56;17.80;92.60
4505;DHT22;2265;48.794;9.520;2023-02-20T11:59:33;17.90;91.50
4505;DHT22;2265;48.794;9.520;2023-02-20T12:02:26;17.70;89.50
4505;DHT22;2265;48.794;9.520;2023-02-20T12:05:05;17.60;90.70
4505;DHT22;2265;48.794;9.520;2023-02-20T12:07:37;17.70;90.00
4505;DHT22;2265;48.794;9.520;2023-02-20T12:10:15;17.90;89.20
4505;DHT22;2265;48.794;9.520;2023-02-20T12:12:45;18.10;90.10
4505;DHT22;2265;48.794;9.520;2023-02-20T12:15:13;18.30;89.20
4505;DHT22;2265;48.794;9.520;2023-02-20T12:17:56;18.60;88.20
4505;DHT22;2265;48.794;9.520;2023-02-20T12:20:29;18.80;87.30
4505;DHT22;2265;48.794;9.520;2023-02-20T12:23:18;18.70;86.70
4505;DHT22;2265;48.794;9.520;2023-02-20T12:25:54;18.80;87.50
4505;DHT22;2265;48.794;9.520;2023-02-20T12:28:30;19.10;86.70
4505;DHT22;2265;48.794;9.520;2023-02-20T12:31:10;19.00;86.70
4505;DHT22;2265;48.794;9.520;2023-02-20T12:33:47;19.00;86.70
4505;DHT22;2265;48.794;9.520;2023-02-20T12:36:30;19.00;86.90
4505;DHT22;2265;48.794;9.520;2023-02-20T12:39:06;19.00;87.40
4505;DHT22;2265;48.794;9.520;2023-02-20T12:41:48;18.80;86.10
4505;DHT22;2265;48.794;9.520;2023-02-20T12:44:38;18.90;86.90
4505;DHT22;2265;48.794;9.520;2023-02-20T12:47:16;19.20;85.60
4505;DHT22;2265;48.794;9.520;2023-02-20T12:49:56;19.10;85.40
4505;DHT22;2265;48.794;9.520;2023-02-20T12:52:47;19.10;86.30
4505;DHT22;2265;48.794;9.520;2023-02-20T12:55:24;19.30;85.80
4505;DHT22;2265;48.794;9.520;2023-02-20T12:58:07;19.60;85.00
4505;DHT22;2265;48.794;9.520;2023-02-20T13:00:39;20.00;84.30
4505;DHT22;2265;48.794;9.520;2023-02-20T13:03:10;20.40;83.80
4505;DHT22;2265;48.794;9.520;2023-02-20T13:05:42;20.60;82.10
4505;DHT22;2265;48.794;9.520;2023-02-20T13:08:13;20.80;82.30
4505;DHT22;2265;48.794;9.520;2023-02-20T13:10:49;20.70;81.90
4505;DHT22;2265;48.794;9.520;2023-02-20T13:13:18;20.70;81.50
4505;DHT22;2265;48.794;9.520;2023-02-20T13:15:52;20.70;81.80
4505;DHT22;2265;48.794;9.520;2023-02-20T13:18:24;20.70;83.00
4505;DHT22;2265;48.794;9.520;2023-02-20T13:20:56;20.80;81.30
4505;DHT22;2265;48.794;9.520;2023-02-20T13:23:29;20.90;82.40
4505;DHT22;2265;48.794;9.520;2023-02-20T13:25:59;21.20;82.40
4505;DHT22;2265;48.794;9.520;2023-02-20T13:28:39;21.10;80.70
4505;DHT22;2265;48.794;9.520;2023-02-20T13:31:21;21.00;81.00
4505;DHT22;2265;48.794;9.520;2023-02-20T13:33:51;21.00;81.30
4505;DHT22;2265;48.794;9.520;2023-02-20T13:36:40;21.10;80.60
4505;DHT22;2265;48.794;9.520;2023-02-20T13:39:38;21.30;80.50
4505;DHT22;2265;48.794;9.520;2023-02-20T13:45:34;21.20;80.60
4505;DHT22;2265;48.794;9.520;2023-02-20T13:48:37;21.30;79.80
4505;DHT22;2265;48.794;9.520;2023-02-20T13:51:36;21.20;79.90
4505;DHT22;2265;48.794;9.520;2023-02-20T13:56:59;20.10;81.00
4505;DHT22;2265;48.794;9.520;2023-02-20T13:59:30;19.80;81.50
4505;DHT22;2265;48.794;9.520;2023-02-20T14:02:11;19.70;83.00
4505;DHT22;2265;48.794;9.520;2023-02-20T14:04:51;19.50;82.10
4505;DHT22;2265;48.794;9.520;2023-02-20T14:07:27;19.40;82.90
4505;DHT22;2265;48.794;9.520;2023-02-20T14:10:06;19.40;82.80
4505;DHT22;2265;48.794;9.520;2023-02-20T14:12:34;19.50;81.40
4505;DHT22;2265;48.794;9.520;2023-02-20T14:15:06;19.70;81.90
4505;DHT22;2265;48.794;9.520;2023-02-20T14:17:34;20.00;81.40
4505;DHT22;2265;48.794;9.520;2023-02-20T14:20:05;20.30;79.70
4505;DHT22;2265;48.794;9.520;2023-02-20T14:22:34;20.40;80.10
4505;DHT22;2265;48.794;9.520;2023-02-20T14:28:07;20.90;79.40
4505;DHT22;2265;48.794;9.520;2023-02-20T14:30:38;21.00;78.70
4505;DHT22;2265;48.794;9.520;2023-02-20T14:33:23;21.20;78.90
4505;DHT22;2265;48.794;9.520;2023-02-20T14:36:06;21.30;78.30
4505;DHT22;2265;48.794;9.520;2023-02-20T14:38:44;21.40;77.60
4505;DHT22;2265;48.794;9.520;2023-02-20T14:41:17;21.20;77.60
4505;DHT22;2265;48.794;9.520;2023-02-20T14:43:52;21.10;77.10
4505;DHT22;2265;48.794;9.520;2023-02-20T14:46:23;21.20;76.30
4505;DHT22;2265;48.794;9.520;2023-02-20T14:49:03;21.60;77.30
4505;DHT22;2265;48.794;9.520;2023-02-20T14:51:34;21.90;75.70
4505;DHT22;2265;48.794;9.520;2023-02-20T14:54:09;22.30;75.60
4505;DHT22;2265;48.794;9.520;2023-02-20T14:56:45;22.40;74.40
4505;DHT22;2265;48.794;9.520;2023-02-20T14:59:23;22.40;71.90
4505;DHT22;2265;48.794;9.520;2023-02-20T15:01:53;22.50;72.40
4505;DHT22;2265;48.794;9.520;2023-02-20T15:04:21;22.70;73.70
4505;DHT22;2265;48.794;9.520;2023-02-20T15:06:50;22.70;73.20
4505;DHT22;2265;48.794;9.520;2023-02-20T15:09:18;23.00;73.30
4505;DHT22;2265;48.794;9.520;2023-02-20T15:11:47;23.10;74.20
4505;DHT22;2265;48.794;9.520;2023-02-20T15:14:21;23.40;71.30
4505;DHT22;2265;48.794;9.520;2023-02-20T15:17:06;23.50;70.60
4505;DHT22;2265;48.794;9.520;2023-02-20T15:19:35;23.50;70.50
4505;DHT22;2265;48.794;9.520;2023-02-20T15:22:04;23.20;70.40
4505;DHT22;2265;48.794;9.520;2023-02-20T15:24:37;23.30;72.60
4505;DHT22;2265;48.794;9.520;2023-02-20T15:27:10;23.70;72.20
4505;DHT22;2265;48.794;9.520;2023-02-20T15:29:39;24.30;71.00
4505;DHT22;2265;48.794;9.520;2023-02-20T15:32:16;24.80;71.00
4505;DHT22;2265;48.794;9.520;2023-02-20T15:34:50;25.40;69.80
4505;DHT22;2265;48.794;9.520;2023-02-20T15:37:21;25.20;69.30
4505;DHT22;2265;48.794;9.520;2023-02-20T15:39:49;25.30;70.90
4505;DHT22;2265;48.794;9.520;2023-02-20T15:42:19;25.70;68.20
4505;DHT22;2265;48.794;9.520;2023-02-20T15:44:46;26.00;68.40
4505;DHT22;2265;48.794;9.520;2023-02-20T15:47:18;26.20;67.10
4505;DHT22;2265;48.794;9.520;2023-02-20T15:49:45;25.80;65.10
4505;DHT22;2265;48.794;9.520;2023-02-20T15:52:16;25.70;66.50
4505;DHT22;2265;48.794;9.520;2023-02-20T15:54:49;25.50;65.20
4505;DHT22;2265;48.794;9.520;2023-02-20T15:57:17;25.20;66.10
4505;DHT22;2265;48.794;9.520;2023-02-20T15:59:45;24.90;64.70
4505;DHT22;2265;48.794;9.520;2023-02-20T16:02:13;24.40;66.20
4505;DHT22;2265;48.794;9.520;2023-02-20T16:04:46;23.90;66.90
4505;DHT22;2265;48.794;9.520;2023-02-20T16:07:16;24.20;67.70
4505;DHT22;2265;48.794;9.520;2023-02-20T16:09:44;24.30;67.90
4505;DHT22;2265;48.794;9.520;2023-02-20T16:12:15;24.40;68.10
4505;DHT22;2265;48.794;9.520;2023-02-20T16:14:43;24.50;68.40
4505;DHT22;2265;48.794;9.520;2023-02-20T16:17:23;24.30;68.50
4505;DHT22;2265;48.794;9.520;2023-02-20T16:19:52;23.30;69.60
4505;DHT22;2265;48.794;9.520;2023-02-20T16:22:21;22.30;72.80
4505;DHT22;2265;48.794;9.520;2023-02-20T16:24:48;21.20;74.30
4505;DHT22;2265;48.794;9.520;2023-02-20T16:27:20;20.20;78.00
4505;DHT22;2265;48.794;9.520;2023-02-20T16:29:48;19.50;78.40
4505;DHT22;2265;48.794;9.520;2023-02-20T16:32:17;18.80;79.30
4505;DHT22;2265;48.794;9.520;2023-02-20T16:34:47;18.50;79.30
4505;DHT22;2265;48.794;9.520;2023-02-20T16:37:16;17.80;82.70
4505;DHT22;2265;48.794;9.520;2023-02-20T16:39:44;17.30;84.90
4505;DHT22;2265;48.794;9.520;2023-02-20T16:42:26;16.70;85.70
4505;DHT22;2265;48.794;9.520;2023-02-20T16:44:54;16.20;88.40
4505;DHT22;2265;48.794;9.520;2023-02-20T16:47:25;15.70;89.10
4505;DHT22;2265;48.794;9.520;2023-02-20T16:49:52;15.20;89.90
4505;DHT22;2265;48.794;9.520;2023-02-20T16:52:24;14.90;90.80
4505;DHT22;2265;48.794;9.520;2023-02-20T16:54:53;14.60;92.10
4505;DHT22;2265;48.794;9.520;2023-02-20T16:57:22;14.30;93.20